sensor_id;sensor_type;location;lat;lon;timestamp;temperature;humidity
74792;SHT30;63319;46.046;17.802;2023-05-08T00:01:14;24.85;45.28
74792;SHT30;63319;46.046;17.802;2023-05-08T00:04:18;24.85;45.20
74792;SHT30;63319;46.046;17.802;2023-05-08T00:07:22;24.81;45.15
74792;SHT30;63319;46.046;17.802;2023-05-08T00:10:24;24.82;45.21
74792;SHT30;63319;46.046;17.802;2023-05-08T00:13:27;24.82;45.30
74792;SHT30;63319;46.046;17.802;2023-05-08T00:16:30;24.79;45.30
74792;SHT30;63319;46.046;17.802;2023-05-08T00:19:33;24.82;45.50
74792;SHT30;63319;46.046;17.802;2023-05-08T00:22:36;24.76;45.31
74792;SHT30;63319;46.046;17.802;2023-05-08T00:25:39;24.78;45.47
74792;SHT30;63319;46.046;17.802;2023-05-08T00:28:42;24.75;45.28
74792;SHT30;63319;46.046;17.802;2023-05-08T00:31:45;24.75;45.33
74792;SHT30;63319;46.046;17.802;2023-05-08T00:34:51;24.72;45.67
74792;SHT30;63319;46.046;17.802;2023-05-08T00:37:57;24.75;45.49
74792;SHT30;63319;46.046;17.802;2023-05-08T00:40:59;24.75;45.65
74792;SHT30;63319;46.046;17.802;2023-05-08T00:44:03;24.72;45.29
74792;SHT30;63319;46.046;17.802;2023-05-08T00:47:07;24.69;45.49
74792;SHT30;63319;46.046;17.802;2023-05-08T00:50:10;24.69;45.27
74792;SHT30;63319;46.046;17.802;2023-05-08T00:53:14;24.71;45.38
74792;SHT30;63319;46.046;17.802;2023-05-08T00:56:18;24.67;45.59
74792;SHT30;63319;46.046;17.802;2023-05-08T00:59:23;24.68;45.61
74792;SHT30;63319;46.046;17.802;2023-05-08T01:02:28;24.67;45.48
74792;SHT30;63319;46.046;17.802;2023-05-08T01:05:33;24.67;45.28
74792;SHT30;63319;46.046;17.802;2023-05-08T01:08:35;24.67;45.63
74792;SHT30;63319;46.046;17.802;2023-05-08T01:11:55;24.65;45.86
74792;SHT30;63319;46.046;17.802;2023-05-08T01:15:17;24.64;45.33
74792;SHT30;63319;46.046;17.802;2023-05-08T01:18:35;24.62;45.64
74792;SHT30;63319;46.046;17.802;2023-05-08T01:21:53;24.62;45.72
74792;SHT30;63319;46.046;17.802;2023-05-08T01:28:50;24.61;45.70
74792;SHT30;63319;46.046;17.802;2023-05-08T01:32:18;24.60;45.65
74792;SHT30;63319;46.046;17.802;2023-05-08T01:36:10;24.58;45.73
74792;SHT30;63319;46.046;17.802;2023-05-08T01:42:45;24.60;45.89
74792;SHT30;63319;46.046;17.802;2023-05-08T01:45:52;24.57;45.74
74792;SHT30;63319;46.046;17.802;2023-05-08T01:49:12;24.55;45.80
74792;SHT30;63319;46.046;17.802;2023-05-08T01:52:20;24.57;45.79
74792;SHT30;63319;46.046;17.802;2023-05-08T01:55:28;24.54;45.91
74792;SHT30;63319;46.046;17.802;2023-05-08T01:58:34;24.57;45.66
74792;SHT30;63319;46.046;17.802;2023-05-08T02:01:39;24.54;45.85
74792;SHT30;63319;46.046;17.802;2023-05-08T02:04:43;24.54;45.92
74792;SHT30;63319;46.046;17.802;2023-05-08T02:07:48;24.52;46.03
74792;SHT30;63319;46.046;17.802;2023-05-08T02:10:52;24.51;45.92
74792;SHT30;63319;46.046;17.802;2023-05-08T02:13:57;24.52;46.00
74792;SHT30;63319;46.046;17.802;2023-05-08T02:17:01;24.52;45.90
74792;SHT30;63319;46.046;17.802;2023-05-08T02:20:06;24.51;46.14
74792;SHT30;63319;46.046;17.802;2023-05-08T02:23:10;24.51;45.84
74792;SHT30;63319;46.046;17.802;2023-05-08T02:26:14;24.51;45.93
74792;SHT30;63319;46.046;17.802;2023-05-08T02:29:20;24.48;45.75
74792;SHT30;63319;46.046;17.802;2023-05-08T02:32:24;24.48;46.19
74792;SHT30;63319;46.046;17.802;2023-05-08T02:35:29;24.50;46.23
74792;SHT30;63319;46.046;17.802;2023-05-08T02:38:34;24.45;46.10
74792;SHT30;63319;46.046;17.802;2023-05-08T02:41:40;24.48;45.98
74792;SHT30;63319;46.046;17.802;2023-05-08T02:44:44;24.45;46.07
74792;SHT30;63319;46.046;17.802;2023-05-08T02:51:11;24.44;46.23
74792;SHT30;63319;46.046;17.802;2023-05-08T02:57:32;24.44;45.95
74792;SHT30;63319;46.046;17.802;2023-05-08T03:00:44;24.43;45.84
74792;SHT30;63319;46.046;17.802;2023-05-08T03:04:04;24.41;45.96
74792;SHT30;63319;46.046;17.802;2023-05-08T03:07:09;24.41;46.20
74792;SHT30;63319;46.046;17.802;2023-05-08T03:10:14;24.40;46.29
74792;SHT30;63319;46.046;17.802;2023-05-08T03:13:19;24.40;46.13
74792;SHT30;63319;46.046;17.802;2023-05-08T03:16:24;24.37;46.56
74792;SHT30;63319;46.046;17.802;2023-05-08T03:19:35;24.38;46.62
74792;SHT30;63319;46.046;17.802;2023-05-08T03:22:42;24.38;46.57
74792;SHT30;63319;46.046;17.802;2023-05-08T03:25:46;24.38;46.59
74792;SHT30;63319;46.046;17.802;2023-05-08T03:28:51;24.38;46.59
74792;SHT30;63319;46.046;17.802;2023-05-08T03:31:59;24.38;46.53
74792;SHT30;63319;46.046;17.802;2023-05-08T03:35:04;24.40;46.57
74792;SHT30;63319;46.046;17.802;2023-05-08T03:38:08;24.38;46.57
74792;SHT30;63319;46.046;17.802;2023-05-08T03:41:11;24.40;46.58
74792;SHT30;63319;46.046;17.802;2023-05-08T03:44:16;24.35;46.51
74792;SHT30;63319;46.046;17.802;2023-05-08T03:47:23;24.38;46.51
74792;SHT30;63319;46.046;17.802;2023-05-08T03:50:28;24.41;46.44
74792;SHT30;63319;46.046;17.802;2023-05-08T03:53:32;24.43;46.40
74792;SHT30;63319;46.046;17.802;2023-05-08T03:56:36;24.38;46.41
74792;SHT30;63319;46.046;17.802;2023-05-08T03:59:53;24.41;46.39
74792;SHT30;63319;46.046;17.802;2023-05-08T04:03:24;24.40;46.37
74792;SHT30;63319;46.046;17.802;2023-05-08T04:06:39;24.38;46.40
74792;SHT30;63319;46.046;17.802;2023-05-08T04:10:16;24.38;46.34
74792;SHT30;63319;46.046;17.802;2023-05-08T04:13:27;24.43;46.34
74792;SHT30;63319;46.046;17.802;2023-05-08T04:16:38;24.38;46.26
74792;SHT30;63319;46.046;17.802;2023-05-08T04:19:45;24.38;46.18
74792;SHT30;63319;46.046;17.802;2023-05-08T04:22:52;24.41;46.19
74792;SHT30;63319;46.046;17.802;2023-05-08T04:25:58;24.40;46.15
74792;SHT30;63319;46.046;17.802;2023-05-08T04:29:04;24.38;46.17
74792;SHT30;63319;46.046;17.802;2023-05-08T04:32:09;24.38;46.11
74792;SHT30;63319;46.046;17.802;2023-05-08T04:35:13;24.40;46.11
74792;SHT30;63319;46.046;17.802;2023-05-08T04:38:17;24.41;46.10
74792;SHT30;63319;46.046;17.802;2023-05-08T04:41:20;24.40;46.11
74792;SHT30;63319;46.046;17.802;2023-05-08T04:44:24;24.38;46.06
74792;SHT30;63319;46.046;17.802;2023-05-08T04:47:28;24.38;46.03
74792;SHT30;63319;46.046;17.802;2023-05-08T04:50:31;24.41;45.93
74792;SHT30;63319;46.046;17.802;2023-05-08T04:53:34;24.40;45.94
74792;SHT30;63319;46.046;17.802;2023-05-08T04:56:37;24.41;45.89
74792;SHT30;63319;46.046;17.802;2023-05-08T04:59:40;24.43;45.86
74792;SHT30;63319;46.046;17.802;2023-05-08T05:02:43;24.43;45.87
74792;SHT30;63319;46.046;17.802;2023-05-08T05:05:46;24.44;45.85
74792;SHT30;63319;46.046;17.802;2023-05-08T05:08:49;24.43;45.41
74792;SHT30;63319;46.046;17.802;2023-05-08T05:11:51;24.41;45.25
74792;SHT30;63319;46.046;17.802;2023-05-08T05:14:55;24.43;45.20
74792;SHT30;63319;46.046;17.802;2023-05-08T05:17:58;24.43;45.54
74792;SHT30;63319;46.046;17.802;2023-05-08T05:21:01;24.40;45.70
74792;SHT30;63319;46.046;17.802;2023-05-08T05:24:05;24.38;45.80
74792;SHT30;63319;46.046;17.802;2023-05-08T05:27:08;24.43;45.76
74792;SHT30;63319;46.046;17.802;2023-05-08T05:30:11;24.43;45.44
74792;SHT30;63319;46.046;17.802;2023-05-08T05:33:16;24.44;45.52
74792;SHT30;63319;46.046;17.802;2023-05-08T05:36:19;24.41;45.27
74792;SHT30;63319;46.046;17.802;2023-05-08T05:39:22;24.44;45.29
74792;SHT30;63319;46.046;17.802;2023-05-08T05:42:25;24.45;45.52
74792;SHT30;63319;46.046;17.802;2023-05-08T05:45:29;24.51;45.34
74792;SHT30;63319;46.046;17.802;2023-05-08T05:48:35;24.54;45.14
74792;SHT30;63319;46.046;17.802;2023-05-08T05:51:39;24.61;45.28
74792;SHT30;63319;46.046;17.802;2023-05-08T05:54:42;24.67;45.15
74792;SHT30;63319;46.046;17.802;2023-05-08T05:57:46;24.69;44.62
74792;SHT30;63319;46.046;17.802;2023-05-08T06:00:50;24.75;44.81
74792;SHT30;63319;46.046;17.802;2023-05-08T06:03:54;24.73;44.32
74792;SHT30;63319;46.046;17.802;2023-05-08T06:06:57;24.76;44.56
74792;SHT30;63319;46.046;17.802;2023-05-08T06:09:59;24.78;44.82
74792;SHT30;63319;46.046;17.802;2023-05-08T06:13:06;23.99;45.24
74792;SHT30;63319;46.046;17.802;2023-05-08T06:16:11;23.52;45.75
74792;SHT30;63319;46.046;17.802;2023-05-08T06:19:14;22.79;47.61
74792;SHT30;63319;46.046;17.802;2023-05-08T06:22:20;22.84;46.58
74792;SHT30;63319;46.046;17.802;2023-05-08T06:25:27;22.55;47.25
74792;SHT30;63319;46.046;17.802;2023-05-08T06:28:30;22.41;46.25
74792;SHT30;63319;46.046;17.802;2023-05-08T06:31:33;22.31;46.64
74792;SHT30;63319;46.046;17.802;2023-05-08T06:34:36;22.31;46.99
74792;SHT30;63319;46.046;17.802;2023-05-08T06:37:38;22.08;45.60
74792;SHT30;63319;46.046;17.802;2023-05-08T06:40:44;21.98;45.95
74792;SHT30;63319;46.046;17.802;2023-05-08T06:43:47;21.91;46.82
74792;SHT30;63319;46.046;17.802;2023-05-08T06:46:50;22.13;47.75
74792;SHT30;63319;46.046;17.802;2023-05-08T06:49:53;22.09;45.08
74792;SHT30;63319;46.046;17.802;2023-05-08T06:52:56;22.13;46.24
74792;SHT30;63319;46.046;17.802;2023-05-08T06:55:59;22.21;46.22
74792;SHT30;63319;46.046;17.802;2023-05-08T06:59:02;22.16;45.88
74792;SHT30;63319;46.046;17.802;2023-05-08T07:02:10;22.11;44.34
74792;SHT30;63319;46.046;17.802;2023-05-08T07:05:13;21.85;46.45
74792;SHT30;63319;46.046;17.802;2023-05-08T07:08:20;21.64;45.83
74792;SHT30;63319;46.046;17.802;2023-05-08T07:11:28;21.68;46.01
74792;SHT30;63319;46.046;17.802;2023-05-08T07:14:31;21.84;45.80
74792;SHT30;63319;46.046;17.802;2023-05-08T07:17:35;22.01;45.22
74792;SHT30;63319;46.046;17.802;2023-05-08T07:20:38;22.05;45.57
74792;SHT30;63319;46.046;17.802;2023-05-08T07:23:41;21.98;44.66
74792;SHT30;63319;46.046;17.802;2023-05-08T07:26:43;21.75;45.10
74792;SHT30;63319;46.046;17.802;2023-05-08T07:29:46;21.77;45.26
74792;SHT30;63319;46.046;17.802;2023-05-08T07:32:49;21.61;44.56
74792;SHT30;63319;46.046;17.802;2023-05-08T07:35:53;21.68;45.65
74792;SHT30;63319;46.046;17.802;2023-05-08T07:38:56;21.91;44.95
74792;SHT30;63319;46.046;17.802;2023-05-08T07:41:59;22.09;46.19
74792;SHT30;63319;46.046;17.802;2023-05-08T07:45:02;22.21;44.79
74792;SHT30;63319;46.046;17.802;2023-05-08T07:48:05;22.48;45.90
74792;SHT30;63319;46.046;17.802;2023-05-08T07:51:10;22.76;46.55
74792;SHT30;63319;46.046;17.802;2023-05-08T07:54:16;23.08;45.27
74792;SHT30;63319;46.046;17.802;2023-05-08T07:57:19;23.32;44.61
74792;SHT30;63319;46.046;17.802;2023-05-08T08:00:22;23.49;44.75
74792;SHT30;63319;46.046;17.802;2023-05-08T08:03:25;23.73;44.50
74792;SHT30;63319;46.046;17.802;2023-05-08T08:06:28;23.90;42.95
74792;SHT30;63319;46.046;17.802;2023-05-08T08:09:35;24.06;42.90
74792;SHT30;63319;46.046;17.802;2023-05-08T08:12:43;24.23;41.40
74792;SHT30;63319;46.046;17.802;2023-05-08T08:15:47;24.54;42.11
74792;SHT30;63319;46.046;17.802;2023-05-08T08:18:49;24.73;41.69
74792;SHT30;63319;46.046;17.802;2023-05-08T08:21:54;24.95;41.06
74792;SHT30;63319;46.046;17.802;2023-05-08T08:24:57;25.22;39.93
74792;SHT30;63319;46.046;17.802;2023-05-08T08:28:00;25.50;40.18
74792;SHT30;63319;46.046;17.802;2023-05-08T08:31:03;25.77;40.41
74792;SHT30;63319;46.046;17.802;2023-05-08T08:34:05;25.81;38.08
74792;SHT30;63319;46.046;17.802;2023-05-08T08:37:09;26.21;38.82
74792;SHT30;63319;46.046;17.802;2023-05-08T08:40:12;26.32;37.74
74792;SHT30;63319;46.046;17.802;2023-05-08T08:43:14;26.74;39.16
74792;SHT30;63319;46.046;17.802;2023-05-08T08:46:18;26.83;37.48
74792;SHT30;63319;46.046;17.802;2023-05-08T08:49:31;26.94;35.22
74792;SHT30;63319;46.046;17.802;2023-05-08T08:53:00;27.16;35.42
74792;SHT30;63319;46.046;17.802;2023-05-08T08:56:06;27.92;36.08
74792;SHT30;63319;46.046;17.802;2023-05-08T08:59:12;28.31;35.06
74792;SHT30;63319;46.046;17.802;2023-05-08T09:02:16;28.51;34.58
74792;SHT30;63319;46.046;17.802;2023-05-08T09:05:21;28.64;33.32
74792;SHT30;63319;46.046;17.802;2023-05-08T09:08:25;28.96;34.98
74792;SHT30;63319;46.046;17.802;2023-05-08T09:11:29;28.92;34.05
74792;SHT30;63319;46.046;17.802;2023-05-08T09:14:32;29.34;33.48
74792;SHT30;63319;46.046;17.802;2023-05-08T09:17:38;28.82;32.12
74792;SHT30;63319;46.046;17.802;2023-05-08T09:20:43;29.29;34.37
74792;SHT30;63319;46.046;17.802;2023-05-08T09:24:02;29.50;34.53
74792;SHT30;63319;46.046;17.802;2023-05-08T09:27:19;29.65;32.54
74792;SHT30;63319;46.046;17.802;2023-05-08T09:30:22;29.81;34.42
74792;SHT30;63319;46.046;17.802;2023-05-08T09:33:27;29.92;34.46
74792;SHT30;63319;46.046;17.802;2023-05-08T09:36:30;29.78;31.34
74792;SHT30;63319;46.046;17.802;2023-05-08T09:39:33;29.81;34.11
74792;SHT30;63319;46.046;17.802;2023-05-08T09:42:38;30.10;34.72
74792;SHT30;63319;46.046;17.802;2023-05-08T09:45:41;30.02;34.52
74792;SHT30;63319;46.046;17.802;2023-05-08T09:48:44;30.15;32.58
74792;SHT30;63319;46.046;17.802;2023-05-08T09:51:51;29.77;33.20
74792;SHT30;63319;46.046;17.802;2023-05-08T09:55:08;29.86;33.52
74792;SHT30;63319;46.046;17.802;2023-05-08T09:58:11;29.14;32.16
74792;SHT30;63319;46.046;17.802;2023-05-08T10:01:46;29.17;31.51
74792;SHT30;63319;46.046;17.802;2023-05-08T10:04:50;29.31;32.56
74792;SHT30;63319;46.046;17.802;2023-05-08T10:07:53;29.30;31.06
74792;SHT30;63319;46.046;17.802;2023-05-08T10:11:15;29.27;31.50
74792;SHT30;63319;46.046;17.802;2023-05-08T10:14:20;29.14;31.57
74792;SHT30;63319;46.046;17.802;2023-05-08T10:17:37;29.53;32.17
74792;SHT30;63319;46.046;17.802;2023-05-08T10:20:42;29.57;32.15
74792;SHT30;63319;46.046;17.802;2023-05-08T10:23:50;29.77;32.55
74792;SHT30;63319;46.046;17.802;2023-05-08T10:27:03;29.54;32.83
74792;SHT30;63319;46.046;17.802;2023-05-08T10:30:11;29.53;32.49
74792;SHT30;63319;46.046;17.802;2023-05-08T10:33:19;28.75;33.54
74792;SHT30;63319;46.046;17.802;2023-05-08T10:36:23;28.65;32.02
74792;SHT30;63319;46.046;17.802;2023-05-08T10:39:27;28.29;32.97
74792;SHT30;63319;46.046;17.802;2023-05-08T10:42:40;28.35;32.98
74792;SHT30;63319;46.046;17.802;2023-05-08T10:45:44;28.35;33.01
74792;SHT30;63319;46.046;17.802;2023-05-08T10:48:55;28.38;33.42
74792;SHT30;63319;46.046;17.802;2023-05-08T10:52:16;28.25;32.29
74792;SHT30;63319;46.046;17.802;2023-05-08T10:55:29;28.55;32.95
74792;SHT30;63319;46.046;17.802;2023-05-08T10:58:35;28.52;32.79
74792;SHT30;63319;46.046;17.802;2023-05-08T11:01:39;28.37;32.40
74792;SHT30;63319;46.046;17.802;2023-05-08T11:04:42;28.04;33.16
74792;SHT30;63319;46.046;17.802;2023-05-08T11:07:56;28.38;33.59
74792;SHT30;63319;46.046;17.802;2023-05-08T11:17:09;28.64;33.43
74792;SHT30;63319;46.046;17.802;2023-05-08T11:20:12;28.35;32.62
74792;SHT30;63319;46.046;17.802;2023-05-08T11:23:26;27.89;33.07
74792;SHT30;63319;46.046;17.802;2023-05-08T11:26:38;27.92;34.46
74792;SHT30;63319;46.046;17.802;2023-05-08T11:29:42;27.87;34.89
74792;SHT30;63319;46.046;17.802;2023-05-08T11:39:17;27.86;34.66
74792;SHT30;63319;46.046;17.802;2023-05-08T11:45:29;27.83;34.42
74792;SHT30;63319;46.046;17.802;2023-05-08T11:48:33;27.97;34.43
74792;SHT30;63319;46.046;17.802;2023-05-08T11:51:37;27.63;33.70
74792;SHT30;63319;46.046;17.802;2023-05-08T11:54:49;27.43;34.54
74792;SHT30;63319;46.046;17.802;2023-05-08T11:57:55;27.46;34.64
74792;SHT30;63319;46.046;17.802;2023-05-08T12:01:01;27.35;35.55
74792;SHT30;63319;46.046;17.802;2023-05-08T12:04:10;26.98;34.68
74792;SHT30;63319;46.046;17.802;2023-05-08T12:07:14;27.00;35.17
74792;SHT30;63319;46.046;17.802;2023-05-08T12:10:18;26.84;40.11
74792;SHT30;63319;46.046;17.802;2023-05-08T12:13:25;26.69;36.01
74792;SHT30;63319;46.046;17.802;2023-05-08T12:16:28;26.76;36.34
74792;SHT30;63319;46.046;17.802;2023-05-08T12:19:30;26.74;38.25
74792;SHT30;63319;46.046;17.802;2023-05-08T12:22:33;26.86;38.01
74792;SHT30;63319;46.046;17.802;2023-05-08T12:25:38;26.74;37.79
74792;SHT30;63319;46.046;17.802;2023-05-08T12:28:43;27.01;39.33
74792;SHT30;63319;46.046;17.802;2023-05-08T12:31:46;27.11;37.83
74792;SHT30;63319;46.046;17.802;2023-05-08T12:34:50;26.91;37.95
74792;SHT30;63319;46.046;17.802;2023-05-08T12:37:54;26.64;38.55
74792;SHT30;63319;46.046;17.802;2023-05-08T12:41:02;26.65;38.11
74792;SHT30;63319;46.046;17.802;2023-05-08T12:44:16;26.63;38.64
74792;SHT30;63319;46.046;17.802;2023-05-08T12:47:18;26.80;38.47
74792;SHT30;63319;46.046;17.802;2023-05-08T12:50:22;26.84;38.01
74792;SHT30;63319;46.046;17.802;2023-05-08T12:53:29;26.86;37.08
74792;SHT30;63319;46.046;17.802;2023-05-08T12:56:32;27.01;38.36
74792;SHT30;63319;46.046;17.802;2023-05-08T12:59:35;26.94;37.54
74792;SHT30;63319;46.046;17.802;2023-05-08T13:02:37;26.67;38.29
74792;SHT30;63319;46.046;17.802;2023-05-08T13:05:51;26.76;39.82
74792;SHT30;63319;46.046;17.802;2023-05-08T13:08:54;26.98;40.09
74792;SHT30;63319;46.046;17.802;2023-05-08T13:11:57;27.04;40.27
74792;SHT30;63319;46.046;17.802;2023-05-08T13:15:00;27.04;40.19
74792;SHT30;63319;46.046;17.802;2023-05-08T13:18:06;27.07;40.08
74792;SHT30;63319;46.046;17.802;2023-05-08T13:21:09;27.08;40.16
74792;SHT30;63319;46.046;17.802;2023-05-08T13:24:15;27.10;40.22
74792;SHT30;63319;46.046;17.802;2023-05-08T13:27:18;27.14;39.86
74792;SHT30;63319;46.046;17.802;2023-05-08T13:30:21;27.15;39.91
74792;SHT30;63319;46.046;17.802;2023-05-08T13:33:30;27.15;40.09
74792;SHT30;63319;46.046;17.802;2023-05-08T13:36:36;27.15;40.16
74792;SHT30;63319;46.046;17.802;2023-05-08T13:39:38;27.10;40.19
74792;SHT30;63319;46.046;17.802;2023-05-08T13:42:42;27.02;40.26
74792;SHT30;63319;46.046;17.802;2023-05-08T13:45:45;26.98;40.43
74792;SHT30;63319;46.046;17.802;2023-05-08T13:48:48;26.94;40.51
74792;SHT30;63319;46.046;17.802;2023-05-08T13:51:51;26.88;40.60
74792;SHT30;63319;46.046;17.802;2023-05-08T13:54:58;26.91;40.57
74792;SHT30;63319;46.046;17.802;2023-05-08T13:58:01;26.94;40.42
74792;SHT30;63319;46.046;17.802;2023-05-08T14:01:04;26.95;40.45
74792;SHT30;63319;46.046;17.802;2023-05-08T14:04:28;26.90;40.49
74792;SHT30;63319;46.046;17.802;2023-05-08T14:07:31;26.84;40.59
74792;SHT30;63319;46.046;17.802;2023-05-08T14:10:34;26.83;40.57
74792;SHT30;63319;46.046;17.802;2023-05-08T14:13:37;26.79;40.54
74792;SHT30;63319;46.046;17.802;2023-05-08T14:16:40;26.79;40.49
74792;SHT30;63319;46.046;17.802;2023-05-08T14:19:43;26.79;40.54
74792;SHT30;63319;46.046;17.802;2023-05-08T14:22:48;26.79;40.52
74792;SHT30;63319;46.046;17.802;2023-05-08T14:25:51;26.74;40.56
74792;SHT30;63319;46.046;17.802;2023-05-08T14:28:53;26.74;40.55
74792;SHT30;63319;46.046;17.802;2023-05-08T14:31:56;26.72;40.66
74792;SHT30;63319;46.046;17.802;2023-05-08T14:34:59;26.69;40.65
74792;SHT30;63319;46.046;17.802;2023-05-08T14:38:02;26.65;40.68
74792;SHT30;63319;46.046;17.802;2023-05-08T14:41:07;26.61;40.79
74792;SHT30;63319;46.046;17.802;2023-05-08T14:44:10;26.59;40.85
74792;SHT30;63319;46.046;17.802;2023-05-08T14:47:14;26.57;40.85
74792;SHT30;63319;46.046;17.802;2023-05-08T14:50:20;26.59;40.82
74792;SHT30;63319;46.046;17.802;2023-05-08T14:53:22;26.59;40.83
74792;SHT30;63319;46.046;17.802;2023-05-08T14:56:26;26.57;40.91
74792;SHT30;63319;46.046;17.802;2023-05-08T14:59:33;26.54;40.92
74792;SHT30;63319;46.046;17.802;2023-05-08T15:02:36;26.47;40.95
74792;SHT30;63319;46.046;17.802;2023-05-08T15:05:39;26.46;40.94
74792;SHT30;63319;46.046;17.802;2023-05-08T15:08:44;26.44;40.99
74792;SHT30;63319;46.046;17.802;2023-05-08T15:11:47;26.43;40.95
74792;SHT30;63319;46.046;17.802;2023-05-08T15:14:50;26.43;40.98
74792;SHT30;63319;46.046;17.802;2023-05-08T15:17:53;26.47;40.94
74792;SHT30;63319;46.046;17.802;2023-05-08T15:20:56;26.44;40.98
74792;SHT30;63319;46.046;17.802;2023-05-08T15:24:01;26.47;41.10
74792;SHT30;63319;46.046;17.802;2023-05-08T15:27:04;26.44;41.10
74792;SHT30;63319;46.046;17.802;2023-05-08T15:30:07;26.43;41.06
74792;SHT30;63319;46.046;17.802;2023-05-08T15:33:10;26.39;41.15
74792;SHT30;63319;46.046;17.802;2023-05-08T15:36:13;26.36;41.25
74792;SHT30;63319;46.046;17.802;2023-05-08T15:39:16;26.36;41.32
74792;SHT30;63319;46.046;17.802;2023-05-08T15:42:20;26.36;41.27
74792;SHT30;63319;46.046;17.802;2023-05-08T15:45:23;26.35;41.25
74792;SHT30;63319;46.046;17.802;2023-05-08T15:48:26;26.35;41.22
74792;SHT30;63319;46.046;17.802;2023-05-08T15:51:29;26.33;41.30
74792;SHT30;63319;46.046;17.802;2023-05-08T15:54:33;26.31;41.33
74792;SHT30;63319;46.046;17.802;2023-05-08T15:57:36;26.28;41.31
74792;SHT30;63319;46.046;17.802;2023-05-08T16:00:38;26.29;41.40
74792;SHT30;63319;46.046;17.802;2023-05-08T16:03:47;26.28;41.34
74792;SHT30;63319;46.046;17.802;2023-05-08T16:06:50;26.29;41.32
74792;SHT30;63319;46.046;17.802;2023-05-08T16:09:53;26.26;41.36
74792;SHT30;63319;46.046;17.802;2023-05-08T16:12:56;26.25;41.35
74792;SHT30;63319;46.046;17.802;2023-05-08T16:16:02;26.22;41.42
74792;SHT30;63319;46.046;17.802;2023-05-08T16:19:06;26.21;41.42
74792;SHT30;63319;46.046;17.802;2023-05-08T16:22:09;26.18;41.49
74792;SHT30;63319;46.046;17.802;2023-05-08T16:25:11;26.19;41.52
74792;SHT30;63319;46.046;17.802;2023-05-08T16:28:15;26.16;41.53
74792;SHT30;63319;46.046;17.802;2023-05-08T16:31:18;26.14;41.60
74792;SHT30;63319;46.046;17.802;2023-05-08T16:34:21;26.11;41.65
74792;SHT30;63319;46.046;17.802;2023-05-08T16:37:24;26.06;41.70
74792;SHT30;63319;46.046;17.802;2023-05-08T16:40:27;26.05;41.69
74792;SHT30;63319;46.046;17.802;2023-05-08T16:43:33;26.05;41.76
74792;SHT30;63319;46.046;17.802;2023-05-08T16:46:35;26.04;41.76
74792;SHT30;63319;46.046;17.802;2023-05-08T16:49:41;25.98;41.86
74792;SHT30;63319;46.046;17.802;2023-05-08T16:52:43;25.98;41.89
74792;SHT30;63319;46.046;17.802;2023-05-08T16:55:46;25.95;41.98
74792;SHT30;63319;46.046;17.802;2023-05-08T16:58:49;25.94;41.92
74792;SHT30;63319;46.046;17.802;2023-05-08T17:01:52;25.91;42.04
74792;SHT30;63319;46.046;17.802;2023-05-08T17:04:55;25.87;42.08
74792;SHT30;63319;46.046;17.802;2023-05-08T17:07:58;25.85;42.12
74792;SHT30;63319;46.046;17.802;2023-05-08T17:11:00;25.84;42.12
74792;SHT30;63319;46.046;17.802;2023-05-08T17:14:03;25.82;42.17
74792;SHT30;63319;46.046;17.802;2023-05-08T17:17:07;25.78;42.22
74792;SHT30;63319;46.046;17.802;2023-05-08T17:20:11;25.78;42.24
74792;SHT30;63319;46.046;17.802;2023-05-08T17:23:14;25.75;42.31
74792;SHT30;63319;46.046;17.802;2023-05-08T17:26:17;25.73;42.29
74792;SHT30;63319;46.046;17.802;2023-05-08T17:29:20;25.73;42.46
74792;SHT30;63319;46.046;17.802;2023-05-08T17:32:23;25.70;42.44
74792;SHT30;63319;46.046;17.802;2023-05-08T17:35:26;25.64;42.46
74792;SHT30;63319;46.046;17.802;2023-05-08T17:38:29;25.63;42.49
74792;SHT30;63319;46.046;17.802;2023-05-08T17:41:32;25.63;42.63
74792;SHT30;63319;46.046;17.802;2023-05-08T17:44:34;25.57;42.51
74792;SHT30;63319;46.046;17.802;2023-05-08T17:47:38;25.57;42.61
74792;SHT30;63319;46.046;17.802;2023-05-08T17:50:42;25.54;42.72
74792;SHT30;63319;46.046;17.802;2023-05-08T17:53:54;25.51;42.75
74792;SHT30;63319;46.046;17.802;2023-05-08T17:56:58;25.50;42.65
74792;SHT30;63319;46.046;17.802;2023-05-08T18:00:00;25.48;42.77
74792;SHT30;63319;46.046;17.802;2023-05-08T18:03:03;25.44;42.79
74792;SHT30;63319;46.046;17.802;2023-05-08T18:06:07;25.41;42.81
74792;SHT30;63319;46.046;17.802;2023-05-08T18:09:10;25.39;42.76
74792;SHT30;63319;46.046;17.802;2023-05-08T18:12:13;25.37;42.82
74792;SHT30;63319;46.046;17.802;2023-05-08T18:15:16;25.36;42.96
74792;SHT30;63319;46.046;17.802;2023-05-08T18:18:20;25.33;43.00
74792;SHT30;63319;46.046;17.802;2023-05-08T18:21:28;25.30;42.90
74792;SHT30;63319;46.046;17.802;2023-05-08T18:24:31;25.27;43.11
74792;SHT30;63319;46.046;17.802;2023-05-08T18:27:34;25.24;43.08
74792;SHT30;63319;46.046;17.802;2023-05-08T18:30:37;25.23;43.14
74792;SHT30;63319;46.046;17.802;2023-05-08T18:33:41;25.23;43.17
74792;SHT30;63319;46.046;17.802;2023-05-08T18:36:44;25.22;43.28
74792;SHT30;63319;46.046;17.802;2023-05-08T18:39:47;25.19;43.19
74792;SHT30;63319;46.046;17.802;2023-05-08T18:42:50;25.18;43.17
74792;SHT30;63319;46.046;17.802;2023-05-08T18:45:53;25.15;43.22
74792;SHT30;63319;46.046;17.802;2023-05-08T18:48:56;25.12;43.32
74792;SHT30;63319;46.046;17.802;2023-05-08T18:52:00;25.10;43.32
74792;SHT30;63319;46.046;17.802;2023-05-08T18:55:03;25.10;43.43
74792;SHT30;63319;46.046;17.802;2023-05-08T18:58:06;25.08;43.23
74792;SHT30;63319;46.046;17.802;2023-05-08T19:01:09;25.05;43.38
74792;SHT30;63319;46.046;17.802;2023-05-08T19:04:12;25.05;43.31
74792;SHT30;63319;46.046;17.802;2023-05-08T19:07:16;25.02;43.20
74792;SHT30;63319;46.046;17.802;2023-05-08T19:10:18;25.02;43.35
74792;SHT30;63319;46.046;17.802;2023-05-08T19:13:22;25.00;43.50
74792;SHT30;63319;46.046;17.802;2023-05-08T19:16:25;24.98;43.44
74792;SHT30;63319;46.046;17.802;2023-05-08T19:19:28;24.96;43.57
74792;SHT30;63319;46.046;17.802;2023-05-08T19:22:32;24.93;43.54
74792;SHT30;63319;46.046;17.802;2023-05-08T19:25:37;24.91;43.52
74792;SHT30;63319;46.046;17.802;2023-05-08T19:28:40;24.89;43.74
74792;SHT30;63319;46.046;17.802;2023-05-08T19:31:43;24.86;43.54
74792;SHT30;63319;46.046;17.802;2023-05-08T19:34:46;24.86;43.60
74792;SHT30;63319;46.046;17.802;2023-05-08T19:37:49;24.86;43.76
74792;SHT30;63319;46.046;17.802;2023-05-08T19:40:53;24.82;43.69